Time;durP1;ratioP1;P1;durP2;ratioP2;P2;SDS_P1;SDS_P2;PMS_P1;PMS_P2;Temp;Humidity;BMP_temperature;BMP_pressure;BME280_temperature;BME280_humidity;BME280_pressure;Samples;Min_cycle;Max_cycle;Signal;HPM_P1;HPM_P2
2023/01/30 00:00:31;;;;;;;61.40;40.28;;;5.20;99.90;;;;;;5050805;28;20082;-70
2023/01/30 00:02:56;;;;;;;60.58;41.08;;;5.30;99.90;;;;;;5044906;28;20107;-70
2023/01/30 00:05:22;;;;;;;57.67;40.60;;;5.30;99.90;;;;;;5045113;28;20041;-70
2023/01/30 00:07:47;;;;;;;60.33;40.67;;;5.40;99.90;;;;;;5049766;28;20545;-70
2023/01/30 00:10:13;;;;;;;56.42;40.42;;;5.40;99.90;;;;;;5040932;28;20052;-69
2023/01/30 00:12:39;;;;;;;63.50;40.55;;;5.40;99.90;;;;;;5036131;28;20052;-70
2023/01/30 00:15:06;;;;;;;57.70;41.63;;;5.40;99.90;;;;;;5041017;28;20080;-69
2023/01/30 00:17:31;;;;;;;60.92;39.67;;;5.40;99.90;;;;;;5033609;28;20042;-70
2023/01/30 00:19:57;;;;;;;63.28;41.85;;;5.40;99.90;;;;;;5030765;28;20045;-70
2023/01/30 00:22:23;;;;;;;62.00;41.53;;;5.50;99.90;;;;;;5049036;28;20041;-70
2023/01/30 00:24:48;;;;;;;56.08;39.78;;;5.50;99.90;;;;;;5050977;28;20415;-70
2023/01/30 00:27:14;;;;;;;61.50;39.10;;;5.50;99.90;;;;;;5034347;28;20382;-70
2023/01/30 00:29:39;;;;;;;58.13;39.90;;;5.50;99.90;;;;;;5037743;28;20049;-70
2023/01/30 00:32:05;;;;;;;58.80;39.50;;;5.60;99.90;;;;;;5049115;28;20416;-69
2023/01/30 00:34:31;;;;;;;54.58;38.90;;;5.50;99.90;;;;;;5046860;28;20045;-70
2023/01/30 00:36:57;;;;;;;58.58;39.22;;;5.60;99.90;;;;;;5044516;28;20428;-70
2023/01/30 00:39:22;;;;;;;55.72;39.10;;;5.60;99.90;;;;;;5038666;28;20093;-70
2023/01/30 00:47:16;;;;;;;53.25;37.40;;;5.70;99.90;;;;;;5045401;28;20045;-69
2023/01/30 00:49:42;;;;;;;55.58;38.75;;;5.70;99.90;;;;;;5049830;28;20183;-69
2023/01/30 00:52:08;;;;;;;50.42;36.53;;;5.80;99.90;;;;;;5048338;28;20052;-69
2023/01/30 00:54:33;;;;;;;53.53;39.55;;;5.80;99.90;;;;;;5043489;28;20041;-69
2023/01/30 00:56:59;;;;;;;51.92;36.65;;;5.80;99.90;;;;;;5039808;28;20065;-69
2023/01/30 00:59:26;;;;;;;53.03;38.88;;;5.80;99.90;;;;;;5033619;28;20151;-69
2023/01/30 01:01:52;;;;;;;55.23;39.63;;;5.90;99.90;;;;;;5047733;28;20045;-69
2023/01/30 01:04:17;;;;;;;55.08;38.95;;;5.80;99.90;;;;;;5049826;28;20123;-69
2023/01/30 01:06:43;;;;;;;53.38;36.13;;;5.90;99.90;;;;;;5047264;28;20040;-69
2023/01/30 01:09:09;;;;;;;54.67;37.50;;;5.90;99.90;;;;;;5046837;28;20421;-69
2023/01/30 01:11:35;;;;;;;50.22;35.95;;;5.90;99.90;;;;;;5044546;28;20124;-69
2023/01/30 01:14:02;;;;;;;51.10;36.42;;;5.90;99.90;;;;;;5044811;28;20153;-69
2023/01/30 01:16:29;;;;;;;50.60;38.35;;;5.90;99.90;;;;;;5048284;28;20472;-70
2023/01/30 01:18:55;;;;;;;49.80;35.50;;;6.00;99.90;;;;;;5047631;28;20128;-69
2023/01/30 01:21:21;;;;;;;51.65;35.80;;;6.00;99.90;;;;;;5050889;28;20145;-68
2023/01/30 01:23:57;;;;;;;50.08;36.83;;;6.00;99.90;;;;;;5051557;28;20398;-69
2023/01/30 01:26:22;;;;;;;52.40;37.20;;;6.00;99.90;;;;;;5046006;28;20095;-69
2023/01/30 01:28:48;;;;;;;56.13;38.00;;;6.00;99.90;;;;;;5051390;28;20041;-69
2023/01/30 01:31:15;;;;;;;53.42;37.38;;;6.00;99.90;;;;;;5048985;28;20102;-69
2023/01/30 01:33:41;;;;;;;51.00;39.80;;;6.10;99.90;;;;;;5048783;28;20053;-69
2023/01/30 01:36:08;;;;;;;57.60;43.03;;;6.10;99.90;;;;;;5042588;28;20103;-69
2023/01/30 01:38:34;;;;;;;59.30;40.13;;;6.10;99.90;;;;;;5050795;28;20144;-70
2023/01/30 01:41:05;;;;;;;58.92;44.05;;;6.10;99.90;;;;;;5050546;28;20128;-69
2023/01/30 01:43:36;;;;;;;61.03;39.88;;;6.10;99.90;;;;;;5049651;28;20543;-69
2023/01/30 01:46:13;;;;;;;63.00;41.22;;;6.10;99.90;;;;;;5047435;28;20396;-70
2023/01/30 01:48:49;;;;;;;62.30;41.00;;;6.10;99.90;;;;;;5042953;28;20807;-69
2023/01/30 01:51:20;;;;;;;60.08;43.40;;;6.10;99.90;;;;;;5046959;28;20052;-69
2023/01/30 01:54:02;;;;;;;60.55;41.53;;;6.10;99.90;;;;;;5048258;28;20041;-69
2023/01/30 01:56:29;;;;;;;60.70;41.22;;;6.10;99.90;;;;;;5047414;28;20144;-70
2023/01/30 01:58:59;;;;;;;61.95;40.22;;;6.10;99.90;;;;;;5050480;28;20044;-69
2023/01/30 02:01:25;;;;;;;65.85;41.45;;;6.10;99.90;;;;;;5042815;28;20083;-69
2023/01/30 02:03:55;;;;;;;62.40;42.63;;;6.00;99.90;;;;;;5037364;28;20053;-69
2023/01/30 02:06:22;;;;;;;56.28;38.20;;;6.10;99.90;;;;;;5034898;28;20065;-70
2023/01/30 02:08:54;;;;;;;59.28;41.47;;;6.10;99.90;;;;;;5044447;28;20127;-69
2023/01/30 02:11:30;;;;;;;61.13;40.22;;;6.10;99.90;;;;;;5044784;28;20048;-70
2023/01/30 02:13:59;;;;;;;58.60;38.25;;;6.10;99.90;;;;;;5044469;28;20089;-69
2023/01/30 02:16:24;;;;;;;60.28;42.00;;;6.20;99.90;;;;;;5043146;28;20068;-70
2023/01/30 02:18:51;;;;;;;58.28;36.75;;;6.20;99.90;;;;;;5049042;28;20127;-69
2023/01/30 02:22:04;;;;;;;60.47;36.88;;;6.20;99.90;;;;;;5046154;28;20049;-69
2023/01/30 02:24:44;;;;;;;59.45;35.75;;;6.20;99.90;;;;;;4991331;28;20062;-70
2023/01/30 02:27:25;;;;;;;56.15;37.10;;;6.20;99.90;;;;;;5035929;28;20373;-70
2023/01/30 02:30:00;;;;;;;48.95;32.65;;;6.20;99.90;;;;;;5045037;28;20128;-69
2023/01/30 02:32:35;;;;;;;43.97;28.67;;;6.30;99.90;;;;;;5034349;28;20037;-70
2023/01/30 02:35:19;;;;;;;40.15;28.08;;;6.30;99.90;;;;;;5030310;28;20053;-70
2023/01/30 02:37:59;;;;;;;33.53;22.92;;;6.30;99.90;;;;;;5031346;28;20061;-70
2023/01/30 02:40:50;;;;;;;34.38;23.35;;;6.40;99.90;;;;;;5063625;28;20037;-70
2023/01/30 02:43:32;;;;;;;32.95;21.10;;;6.40;99.90;;;;;;5040077;28;20077;-70
2023/01/30 02:46:07;;;;;;;26.83;20.52;;;6.50;99.90;;;;;;5048483;28;20045;-70
2023/01/30 02:48:42;;;;;;;25.85;18.13;;;6.40;99.90;;;;;;5046794;28;20053;-70
2023/01/30 02:51:23;;;;;;;25.63;17.08;;;6.50;99.90;;;;;;5041915;28;20044;-70
2023/01/30 02:53:49;;;;;;;23.63;17.25;;;6.60;99.90;;;;;;5041168;28;20051;-70
2023/01/30 02:56:15;;;;;;;20.10;15.43;;;6.60;99.90;;;;;;5047426;28;20049;-70
2023/01/30 02:59:05;;;;;;;21.83;15.10;;;6.60;99.90;;;;;;5079519;28;20053;-70
2023/01/30 03:02:05;;;;;;;18.02;13.48;;;6.60;99.90;;;;;;5045363;28;20036;-70
2023/01/30 03:05:01;;;;;;;17.90;12.60;;;6.60;99.90;;;;;;5017983;28;20046;-70
2023/01/30 03:07:36;;;;;;;17.00;11.00;;;6.60;99.90;;;;;;5038380;28;20052;-70
2023/01/30 03:10:20;;;;;;;13.30;8.88;;;6.70;99.90;;;;;;5052578;28;20132;-70
2023/01/30 03:12:52;;;;;;;13.15;8.85;;;6.60;99.90;;;;;;5047798;28;20098;-70
2023/01/30 03:15:39;;;;;;;12.65;8.60;;;6.70;99.90;;;;;;5046151;28;20503;-70
2023/01/30 03:18:06;;;;;;;14.25;8.40;;;6.70;99.90;;;;;;5047937;28;20080;-70
2023/01/30 03:20:39;;;;;;;17.30;8.27;;;6.70;99.90;;;;;;5053401;28;20033;-70
2023/01/30 03:23:05;;;;;;;17.08;8.10;;;6.70;99.90;;;;;;5051569;28;20049;-70
2023/01/30 03:25:32;;;;;;;15.90;7.75;;;6.70;99.90;;;;;;5050611;28;20056;-70
2023/01/30 03:28:01;;;;;;;15.18;7.75;;;6.80;99.90;;;;;;5049087;28;20041;-69
2023/01/30 03:30:26;;;;;;;11.73;7.25;;;6.80;99.90;;;;;;5051791;28;20053;-70
2023/01/30 03:32:52;;;;;;;14.65;8.15;;;6.80;99.90;;;;;;5051297;28;20110;-70
2023/01/30 03:35:18;;;;;;;16.67;7.63;;;6.80;99.90;;;;;;5049863;28;20068;-69
2023/01/30 03:37:45;;;;;;;12.77;7.35;;;6.80;99.90;;;;;;5051756;28;20552;-70
2023/01/30 03:40:12;;;;;;;13.70;7.05;;;6.80;99.90;;;;;;5050093;28;20053;-70
2023/01/30 03:42:38;;;;;;;12.65;7.20;;;6.80;99.90;;;;;;5051954;28;20438;-70
2023/01/30 03:45:04;;;;;;;16.92;7.05;;;6.80;99.90;;;;;;5048104;28;20044;-70
2023/01/30 03:47:29;;;;;;;17.20;7.15;;;6.80;99.90;;;;;;5039956;28;20084;-70
2023/01/30 03:49:55;;;;;;;18.20;7.25;;;6.80;99.90;;;;;;5033489;28;20045;-70
2023/01/30 03:52:21;;;;;;;19.80;7.50;;;6.80;99.90;;;;;;5046948;28;20416;-70
2023/01/30 03:54:46;;;;;;;15.02;6.45;;;6.90;99.90;;;;;;5051294;28;20056;-70
2023/01/30 03:57:12;;;;;;;15.88;6.10;;;6.90;99.90;;;;;;5051077;28;20045;-69
2023/01/30 03:59:37;;;;;;;14.68;6.50;;;6.90;99.90;;;;;;5050653;28;20037;-70
2023/01/30 04:02:03;;;;;;;18.20;5.70;;;6.80;99.90;;;;;;5049693;28;20033;-70
2023/01/30 04:04:29;;;;;;;16.63;6.20;;;6.90;99.90;;;;;;5050070;28;20546;-70
2023/01/30 04:06:54;;;;;;;18.88;6.20;;;6.90;99.90;;;;;;5044607;28;20378;-70
2023/01/30 04:09:20;;;;;;;20.92;5.93;;;6.90;99.90;;;;;;5049562;28;20399;-70
2023/01/30 04:11:45;;;;;;;19.30;5.57;;;7.00;99.90;;;;;;5047659;28;20045;-69
2023/01/30 04:14:11;;;;;;;18.80;5.95;;;7.00;99.90;;;;;;5041563;28;20049;-70
2023/01/30 04:16:37;;;;;;;19.20;5.22;;;7.00;99.90;;;;;;5038683;28;20037;-70
2023/01/30 04:19:02;;;;;;;18.25;5.30;;;7.00;99.90;;;;;;5049994;28;20037;-70
2023/01/30 04:21:28;;;;;;;22.02;5.70;;;7.00;99.90;;;;;;5048474;28;20476;-70
2023/01/30 04:23:53;;;;;;;19.02;5.72;;;7.00;99.90;;;;;;5052697;28;20098;-69
2023/01/30 04:26:19;;;;;;;20.05;4.97;;;7.10;99.90;;;;;;5047395;28;20114;-70
2023/01/30 04:28:45;;;;;;;18.50;5.18;;;7.10;99.90;;;;;;5050926;28;20512;-69
2023/01/30 04:31:11;;;;;;;19.73;5.78;;;7.10;99.90;;;;;;5049385;28;20040;-69
2023/01/30 04:33:38;;;;;;;22.45;6.10;;;7.10;99.90;;;;;;5050830;28;20051;-70
2023/01/30 04:36:05;;;;;;;;;;;7.10;99.90;;;;;;5048074;28;20059;-70
2023/01/30 04:38:32;;;;;;;24.38;5.47;;;7.00;99.90;;;;;;5051245;28;19921;-70
2023/01/30 04:40:58;;;;;;;19.77;5.78;;;7.10;99.90;;;;;;5045613;28;20049;-70
2023/01/30 04:43:26;;;;;;;21.35;5.80;;;7.10;99.90;;;;;;5048065;28;20045;-70
2023/01/30 04:45:52;;;;;;;;;;;7.10;99.90;;;;;;5049301;28;20444;-70
2023/01/30 04:48:19;;;;;;;21.92;6.03;;;7.10;99.90;;;;;;5045191;28;19925;-70
2023/01/30 04:50:47;;;;;;;23.65;6.25;;;7.10;99.90;;;;;;5040686;28;20080;-70
2023/01/30 04:53:14;;;;;;;20.25;5.43;;;7.00;99.90;;;;;;5047636;28;20033;-70
2023/01/30 04:55:40;;;;;;;21.13;5.07;;;7.10;99.90;;;;;;5046537;28;20052;-69
2023/01/30 04:58:05;;;;;;;19.67;5.68;;;7.10;99.90;;;;;;5046238;28;20048;-70
2023/01/30 05:00:31;;;;;;;20.52;5.18;;;7.10;99.90;;;;;;5049248;28;20064;-70
2023/01/30 05:02:57;;;;;;;18.00;6.05;;;7.10;99.90;;;;;;5031550;28;20037;-69
2023/01/30 05:05:23;;;;;;;21.10;5.57;;;7.10;99.90;;;;;;5039060;28;20045;-70
2023/01/30 05:07:49;;;;;;;20.15;5.50;;;7.00;99.90;;;;;;5037896;28;20053;-70
2023/01/30 05:10:16;;;;;;;19.27;5.68;;;7.00;99.90;;;;;;5032385;28;20041;-69
2023/01/30 05:12:41;;;;;;;19.80;6.00;;;7.00;99.90;;;;;;5034320;28;20127;-69
2023/01/30 05:15:07;;;;;;;20.45;4.32;;;7.00;99.90;;;;;;5041294;28;20119;-70
2023/01/30 05:17:33;;;;;;;24.25;5.95;;;6.90;99.90;;;;;;5047808;28;20407;-70
2023/01/30 05:19:59;;;;;;;22.55;5.47;;;6.90;99.90;;;;;;5049892;28;20052;-69
2023/01/30 05:22:25;;;;;;;18.70;4.97;;;6.90;99.90;;;;;;5047895;28;20238;-69
2023/01/30 05:24:50;;;;;;;22.40;5.38;;;6.80;99.90;;;;;;5050907;28;20383;-69
2023/01/30 05:27:16;;;;;;;18.25;4.65;;;6.80;99.90;;;;;;5049789;28;20055;-70
2023/01/30 05:29:42;;;;;;;17.00;4.30;;;6.80;99.90;;;;;;5049478;28;20099;-70
2023/01/30 05:32:12;;;;;;;22.83;5.00;;;6.90;99.90;;;;;;5045725;28;20373;-70
2023/01/30 05:34:38;;;;;;;18.88;4.78;;;6.80;99.90;;;;;;5049353;28;20046;-70
2023/01/30 05:37:04;;;;;;;17.67;4.72;;;6.90;99.90;;;;;;5050661;28;20447;-70
2023/01/30 05:39:29;;;;;;;21.02;5.00;;;6.90;99.90;;;;;;5049654;28;20404;-70
2023/01/30 05:41:55;;;;;;;20.88;4.88;;;6.80;99.90;;;;;;5048420;28;20399;-70
2023/01/30 05:44:21;;;;;;;24.45;5.47;;;6.80;99.90;;;;;;5047017;28;20055;-70
2023/01/30 05:46:46;;;;;;;21.95;4.50;;;6.80;99.90;;;;;;5044895;28;20048;-69
2023/01/30 05:49:12;;;;;;;21.02;5.95;;;6.80;99.90;;;;;;5031302;28;20103;-70
2023/01/30 05:51:37;;;;;;;25.60;4.82;;;6.80;99.90;;;;;;5044262;28;20045;-70
2023/01/30 05:54:03;;;;;;;20.55;5.35;;;6.80;99.90;;;;;;5044306;28;20037;-70
2023/01/30 05:56:32;;;;;;;18.17;4.47;;;6.80;99.90;;;;;;5040151;28;20071;-70
2023/01/30 05:58:58;;;;;;;20.77;4.40;;;6.80;99.90;;;;;;5045476;28;20083;-70
2023/01/30 06:01:25;;;;;;;22.70;5.00;;;6.70;99.90;;;;;;5037247;28;20588;-69
2023/01/30 06:03:51;;;;;;;21.92;4.97;;;6.70;99.90;;;;;;5049078;28;20045;-69
2023/01/30 06:06:17;;;;;;;20.98;4.32;;;6.70;99.90;;;;;;5047482;28;20051;-70
2023/01/30 06:08:43;;;;;;;24.55;5.15;;;6.70;99.90;;;;;;5041059;28;20052;-69
2023/01/30 06:11:12;;;;;;;26.58;5.30;;;6.60;99.90;;;;;;5045734;28;20392;-69
2023/01/30 06:13:38;;;;;;;25.65;4.88;;;6.60;99.90;;;;;;5048540;28;20056;-70
2023/01/30 06:16:05;;;;;;;28.17;5.65;;;6.50;99.90;;;;;;5040145;28;20408;-70
2023/01/30 06:18:30;;;;;;;24.48;5.32;;;6.50;99.90;;;;;;5045833;28;20041;-69
2023/01/30 06:20:56;;;;;;;24.80;5.57;;;6.40;99.90;;;;;;5037008;28;20056;-69
2023/01/30 06:23:24;;;;;;;24.75;5.45;;;6.40;99.90;;;;;;5045919;28;20068;-70
2023/01/30 06:25:52;;;;;;;22.92;4.68;;;6.40;99.90;;;;;;5046900;28;20052;-70
2023/01/30 06:28:18;;;;;;;24.77;5.50;;;6.40;99.90;;;;;;5047931;28;20041;-69
2023/01/30 06:30:44;;;;;;;25.45;5.22;;;6.40;99.90;;;;;;5049277;28;20052;-70
2023/01/30 06:33:10;;;;;;;22.80;4.88;;;6.30;99.90;;;;;;5044090;28;20049;-70
2023/01/30 06:35:40;;;;;;;25.73;5.22;;;6.30;99.90;;;;;;5031937;28;20464;-70
2023/01/30 06:38:10;;;;;;;20.63;3.95;;;6.30;99.90;;;;;;5046293;28;20140;-69
2023/01/30 06:40:36;;;;;;;26.80;5.40;;;6.20;99.90;;;;;;5048810;28;20053;-69
2023/01/30 06:43:02;;;;;;;19.52;4.45;;;6.20;99.90;;;;;;5047602;28;20044;-70
2023/01/30 06:45:27;;;;;;;26.85;5.57;;;6.20;99.90;;;;;;5035532;28;20042;-70
2023/01/30 06:47:54;;;;;;;24.02;4.95;;;6.20;99.90;;;;;;5053313;28;20370;-70
2023/01/30 06:50:22;;;;;;;19.37;4.73;;;6.10;99.90;;;;;;5035949;28;20049;-70
2023/01/30 06:52:49;;;;;;;28.20;5.07;;;6.10;99.90;;;;;;5045027;28;20140;-69
2023/01/30 06:55:17;;;;;;;29.83;5.65;;;6.20;99.90;;;;;;5050170;28;20079;-69
2023/01/30 06:57:43;;;;;;;26.77;5.53;;;6.10;99.90;;;;;;5038123;28;20037;-69
2023/01/30 07:00:13;;;;;;;26.70;4.90;;;6.10;99.90;;;;;;5045503;28;20053;-69
2023/01/30 07:02:39;;;;;;;24.77;4.28;;;6.10;99.90;;;;;;5044617;28;20488;-69
2023/01/30 07:05:06;;;;;;;24.40;4.38;;;6.10;99.90;;;;;;5050416;28;20045;-69
2023/01/30 07:07:32;;;;;;;26.33;4.80;;;6.20;99.90;;;;;;5041889;28;20045;-70
2023/01/30 07:09:59;;;;;;;23.77;5.20;;;6.20;99.90;;;;;;5082585;28;20107;-69
2023/01/30 07:12:26;;;;;;;27.25;5.50;;;6.20;99.90;;;;;;5049980;28;20037;-69
2023/01/30 07:14:57;;;;;;;25.83;4.73;;;6.20;99.90;;;;;;5053058;28;20076;-70
2023/01/30 07:17:23;;;;;;;31.83;5.60;;;6.20;99.90;;;;;;5045985;28;20365;-71
2023/01/30 07:19:49;;;;;;;25.45;4.32;;;6.20;99.90;;;;;;5048156;28;20437;-70
2023/01/30 07:22:15;;;;;;;26.38;5.22;;;6.20;99.90;;;;;;5049949;28;20455;-70
2023/01/30 07:24:44;;;;;;;29.92;5.63;;;6.20;99.90;;;;;;5043421;28;20052;-70
2023/01/30 07:27:10;;;;;;;34.17;4.93;;;6.10;99.90;;;;;;5080673;28;20041;-70
2023/01/30 07:29:37;;;;;;;25.17;4.97;;;6.20;99.90;;;;;;5052061;28;20045;-70
2023/01/30 07:32:04;;;;;;;28.33;5.10;;;6.20;99.90;;;;;;5046699;28;20052;-70
2023/01/30 07:34:30;;;;;;;23.70;4.95;;;6.20;99.90;;;;;;5048793;28;20029;-70
2023/01/30 07:36:56;;;;;;;27.45;5.32;;;6.20;99.90;;;;;;5036550;28;20091;-71
2023/01/30 07:39:23;;;;;;;24.05;4.25;;;6.30;99.90;;;;;;5039037;28;20045;-70
2023/01/30 07:41:48;;;;;;;28.23;4.95;;;6.30;99.90;;;;;;5040947;28;20088;-70
2023/01/30 07:44:17;;;;;;;24.48;4.47;;;6.30;99.90;;;;;;5048697;28;20156;-70
2023/01/30 07:46:43;;;;;;;26.40;5.53;;;6.30;99.90;;;;;;5043872;28;20059;-70
2023/01/30 07:49:09;;;;;;;27.50;6.22;;;6.30;99.90;;;;;;5045841;28;20540;-70
2023/01/30 07:51:35;;;;;;;25.45;4.82;;;6.30;99.90;;;;;;5045407;28;20491;-70
2023/01/30 07:54:02;;;;;;;23.08;5.13;;;6.30;99.90;;;;;;5048432;28;20045;-70
2023/01/30 07:56:29;;;;;;;24.20;5.22;;;6.40;99.90;;;;;;5040837;28;20049;-70
2023/01/30 07:58:55;;;;;;;31.52;5.15;;;6.30;99.90;;;;;;5049492;28;20447;-69
2023/01/30 08:01:22;;;;;;;26.27;5.70;;;6.30;99.90;;;;;;5077625;28;20059;-71
2023/01/30 08:03:48;;;;;;;25.47;5.40;;;6.40;99.90;;;;;;5044747;28;20052;-71
2023/01/30 08:06:14;;;;;;;27.00;5.05;;;6.30;99.90;;;;;;5047037;28;20090;-71
2023/01/30 08:08:41;;;;;;;22.80;5.90;;;6.30;99.90;;;;;;5038495;28;20171;-70
2023/01/30 08:11:07;;;;;;;21.95;4.47;;;6.40;99.90;;;;;;5050251;28;20037;-71
2023/01/30 08:13:33;;;;;;;26.80;4.93;;;6.40;99.90;;;;;;5048676;28;20053;-70
2023/01/30 08:16:03;;;;;;;26.05;6.30;;;6.40;99.90;;;;;;5050125;28;20040;-70
2023/01/30 08:18:33;;;;;;;24.45;4.90;;;6.40;99.90;;;;;;5045909;28;20037;-70
2023/01/30 08:21:01;;;;;;;31.52;5.30;;;6.40;99.90;;;;;;5040788;28;20037;-70
2023/01/30 08:23:26;;;;;;;;;;;6.50;99.90;;;;;;5049627;28;20077;-71
2023/01/30 08:26:01;;;;;;;23.52;4.53;;;6.40;99.90;;;;;;5045130;28;19952;-70
2023/01/30 08:28:28;;;;;;;25.92;4.90;;;6.50;99.90;;;;;;5045331;28;20056;-70
2023/01/30 08:30:53;;;;;;;25.38;5.20;;;6.40;99.90;;;;;;5082386;28;20048;-71
2023/01/30 08:33:20;;;;;;;21.80;5.63;;;6.40;99.90;;;;;;5049413;28;20412;-73
2023/01/30 08:35:46;;;;;;;26.93;4.93;;;6.50;99.90;;;;;;5043809;28;20052;-77
2023/01/30 08:38:12;;;;;;;25.50;5.10;;;6.40;99.90;;;;;;5041982;28;20057;-73
2023/01/30 08:40:38;;;;;;;26.42;5.35;;;6.40;99.90;;;;;;5045850;28;20499;-73
2023/01/30 08:43:04;;;;;;;28.17;4.80;;;6.50;99.90;;;;;;5049802;28;20077;-73
2023/01/30 08:45:30;;;;;;;25.63;4.95;;;6.50;99.90;;;;;;5050187;28;20161;-73
2023/01/30 08:48:01;;;;;;;29.65;6.40;;;6.50;99.90;;;;;;5049753;28;20055;-73
2023/01/30 08:50:27;;;;;;;27.15;5.35;;;6.50;99.90;;;;;;5043649;28;20044;-73
2023/01/30 08:52:53;;;;;;;31.55;5.45;;;6.50;99.90;;;;;;5050082;28;20125;-74
2023/01/30 08:55:19;;;;;;;34.28;5.78;;;6.50;99.90;;;;;;5050792;28;20120;-74
2023/01/30 08:57:46;;;;;;;28.70;5.10;;;6.50;99.90;;;;;;5050882;28;20055;-72
2023/01/30 09:00:12;;;;;;;27.08;5.45;;;6.60;99.90;;;;;;5050673;28;20147;-71
2023/01/30 09:02:38;;;;;;;29.15;5.15;;;6.60;99.90;;;;;;5050856;28;20037;-70
2023/01/30 09:05:05;;;;;;;33.40;5.78;;;6.60;99.90;;;;;;5046330;28;20045;-73
2023/01/30 09:07:31;;;;;;;28.80;5.28;;;6.60;99.90;;;;;;5046080;28;20072;-73
2023/01/30 09:09:57;;;;;;;29.02;6.13;;;6.60;99.90;;;;;;5043804;28;20049;-75
2023/01/30 09:12:23;;;;;;;25.13;5.60;;;6.60;99.90;;;;;;5042736;28;20044;-74
2023/01/30 09:14:49;;;;;;;27.60;5.80;;;6.60;99.90;;;;;;5049630;28;20067;-74
2023/01/30 09:17:14;;;;;;;29.13;5.60;;;6.60;99.90;;;;;;5048345;28;20476;-74
2023/01/30 09:19:40;;;;;;;31.95;6.43;;;6.60;99.90;;;;;;5043677;28;20053;-76
2023/01/30 09:22:06;;;;;;;26.88;5.22;;;6.60;99.90;;;;;;5045517;28;20232;-72
2023/01/30 09:24:32;;;;;;;25.85;4.78;;;6.70;99.90;;;;;;5045162;28;20553;-74
2023/01/30 09:26:58;;;;;;;30.38;5.60;;;6.70;99.90;;;;;;5049698;28;20136;-73
2023/01/30 09:29:26;;;;;;;29.83;5.32;;;6.70;99.90;;;;;;5048926;28;20055;-75
2023/01/30 09:31:55;;;;;;;29.05;5.88;;;6.70;99.90;;;;;;5044294;28;20049;-74
2023/01/30 09:34:26;;;;;;;32.00;5.63;;;6.70;99.90;;;;;;5049604;28;20103;-73
2023/01/30 09:36:52;;;;;;;31.30;5.75;;;6.80;99.90;;;;;;5044408;28;20081;-74
2023/01/30 09:39:18;;;;;;;32.92;5.03;;;6.80;99.90;;;;;;5049464;28;20373;-74
2023/01/30 09:42:05;;;;;;;26.55;4.60;;;6.80;99.90;;;;;;5046983;28;20051;-75
2023/01/30 09:44:45;;;;;;;;;;;6.80;99.90;;;;;;5052058;28;20049;-73
2023/01/30 09:47:18;;;;;;;24.45;5.28;;;6.90;99.90;;;;;;5051250;28;19921;-76
2023/01/30 09:50:08;;;;;;;29.33;5.88;;;6.90;99.90;;;;;;5049778;28;20114;-73
2023/01/30 09:53:03;;;;;;;27.20;5.45;;;6.90;99.90;;;;;;5046629;28;20052;-72
2023/01/30 09:55:32;;;;;;;28.63;5.50;;;7.00;99.90;;;;;;5048823;28;20044;-72
2023/01/30 09:57:59;;;;;;;27.23;5.15;;;7.00;99.90;;;;;;5049659;28;20036;-72
2023/01/30 10:00:35;;;;;;;26.42;4.78;;;7.00;99.90;;;;;;5045215;28;20048;-77
2023/01/30 10:03:10;;;;;;;25.80;5.37;;;7.00;99.90;;;;;;5049587;28;20488;-72
2023/01/30 10:05:48;;;;;;;27.08;6.07;;;7.10;99.90;;;;;;5041615;28;20120;-74
2023/01/30 10:08:44;;;;;;;25.75;5.22;;;7.20;99.90;;;;;;5040988;28;20049;-73
2023/01/30 10:11:17;;;;;;;25.23;4.77;;;7.20;99.90;;;;;;5040378;28;20128;-71
2023/01/30 10:14:10;;;;;;;26.50;5.40;;;7.20;99.90;;;;;;5048676;28;20048;-75
2023/01/30 10:16:54;;;;;;;26.30;5.85;;;7.30;99.90;;;;;;5043936;28;20136;-74
2023/01/30 10:19:41;;;;;;;26.83;5.85;;;7.30;99.90;;;;;;5041750;28;20048;-76
2023/01/30 10:22:21;;;;;;;28.23;5.88;;;7.20;99.90;;;;;;5054376;28;20132;-72
2023/01/30 10:25:15;;;;;;;30.17;6.38;;;7.20;99.90;;;;;;5053285;28;20063;-71
2023/01/30 10:27:55;;;;;;;29.88;6.03;;;7.20;99.90;;;;;;5050378;28;20053;-71
2023/01/30 10:30:21;;;;;;;31.20;6.38;;;7.30;99.90;;;;;;5052450;28;20499;-72
2023/01/30 10:32:58;;;;;;;23.73;5.63;;;7.30;99.90;;;;;;5053089;28;20072;-70
2023/01/30 10:35:29;;;;;;;23.67;5.00;;;7.30;99.90;;;;;;5039985;28;20086;-70
2023/01/30 10:38:03;;;;;;;30.67;5.80;;;7.30;99.90;;;;;;5052520;28;20057;-70
2023/01/30 10:40:55;;;;;;;25.75;5.00;;;7.40;99.90;;;;;;5053962;28;20123;-70
2023/01/30 10:43:35;;;;;;;25.65;5.60;;;7.40;99.90;;;;;;5038750;28;20537;-71
2023/01/30 10:46:08;;;;;;;24.38;5.22;;;7.50;99.90;;;;;;5049898;28;20376;-72
2023/01/30 10:48:43;;;;;;;31.05;5.55;;;7.50;99.90;;;;;;5051911;28;20453;-71
2023/01/30 10:51:28;;;;;;;30.10;5.45;;;7.60;99.90;;;;;;5052150;28;20037;-71
2023/01/30 10:53:59;;;;;;;31.65;5.43;;;7.60;99.90;;;;;;5046632;28;20071;-74
2023/01/30 10:56:51;;;;;;;30.80;6.18;;;7.60;99.90;;;;;;5052897;28;20045;-72
2023/01/30 10:59:29;;;;;;;20.20;4.43;;;7.70;99.90;;;;;;5040311;28;20132;-74
2023/01/30 11:02:22;;;;;;;27.40;5.78;;;7.70;99.90;;;;;;5053215;28;20484;-74
2023/01/30 11:04:59;;;;;;;25.58;5.68;;;7.80;99.90;;;;;;5047336;28;20049;-75
2023/01/30 11:07:31;;;;;;;24.88;4.97;;;7.80;99.90;;;;;;5052779;28;20037;-75
2023/01/30 11:09:59;;;;;;;28.38;5.13;;;7.90;99.90;;;;;;5050067;28;20045;-71
2023/01/30 11:12:24;;;;;;;;;;;7.90;99.90;;;;;;5048327;28;20060;-73
2023/01/30 11:14:58;;;;;;;28.40;5.28;;;7.90;99.90;;;;;;5081906;28;20367;-71
2023/01/30 11:17:33;;;;;;;23.42;5.28;;;7.80;99.90;;;;;;5046266;28;20049;-73
2023/01/30 11:20:13;;;;;;;25.00;5.28;;;7.80;99.90;;;;;;5050066;28;20055;-72
2023/01/30 11:22:47;;;;;;;30.30;5.45;;;7.70;99.90;;;;;;5038697;28;20082;-72
2023/01/30 11:25:16;;;;;;;30.08;5.95;;;7.60;99.90;;;;;;5048330;28;20045;-72
2023/01/30 11:27:43;;;;;;;35.13;6.90;;;7.60;99.90;;;;;;5051300;28;20037;-72
2023/01/30 11:30:18;;;;;;;31.30;5.63;;;7.40;99.90;;;;;;5041937;28;20055;-74
2023/01/30 11:32:46;;;;;;;26.98;5.47;;;7.30;99.90;;;;;;5052912;28;20067;-75
2023/01/30 11:35:28;;;;;;;29.38;6.72;;;7.10;99.90;;;;;;5048907;28;20049;-75
2023/01/30 11:38:10;;;;;;;26.17;5.18;;;7.10;99.90;;;;;;5050137;28;20057;-74
2023/01/30 11:40:39;;;;;;;29.80;6.03;;;7.00;99.90;;;;;;5046353;28;20056;-74
2023/01/30 11:43:11;;;;;;;22.45;4.75;;;6.90;99.90;;;;;;5049878;28;20041;-74
2023/01/30 11:45:43;;;;;;;31.20;5.03;;;6.90;99.90;;;;;;5046111;28;20072;-76
2023/01/30 11:48:22;;;;;;;26.30;4.97;;;7.00;99.90;;;;;;5040686;28;20049;-72
2023/01/30 11:50:54;;;;;;;22.45;5.35;;;7.10;99.90;;;;;;5045812;28;20041;-72
2023/01/30 11:53:37;;;;;;;31.20;5.55;;;7.10;99.90;;;;;;5050433;28;20041;-72
2023/01/30 11:56:22;;;;;;;25.88;4.68;;;7.20;99.90;;;;;;5042237;28;20407;-73
2023/01/30 11:58:57;;;;;;;23.10;4.85;;;7.30;99.90;;;;;;5041270;28;20935;-72
2023/01/30 12:01:30;;;;;;;23.33;4.25;;;7.40;99.90;;;;;;5033759;28;20152;-72
2023/01/30 12:03:57;;;;;;;25.27;5.22;;;7.50;99.90;;;;;;5050083;28;20431;-72
2023/01/30 12:06:35;;;;;;;26.13;4.95;;;7.50;99.90;;;;;;5049519;28;20045;-74
2023/01/30 12:09:01;;;;;;;21.02;4.18;;;7.50;99.90;;;;;;5042324;28;20456;-73
2023/01/30 12:11:26;;;;;;;19.10;4.05;;;7.40;99.90;;;;;;5048832;28;20045;-72
2023/01/30 12:13:58;;;;;;;16.95;4.35;;;7.20;99.90;;;;;;5047491;28;20447;-72
2023/01/30 12:16:51;;;;;;;20.75;3.35;;;7.10;99.90;;;;;;5050986;28;20459;-72
2023/01/30 12:19:32;;;;;;;22.55;3.55;;;7.00;99.90;;;;;;5051649;28;20048;-72
2023/01/30 12:22:03;;;;;;;19.98;4.00;;;7.00;99.90;;;;;;5052707;28;20064;-72
2023/01/30 12:24:54;;;;;;;23.13;4.38;;;6.90;99.90;;;;;;5050691;28;20102;-72
2023/01/30 12:27:44;;;;;;;17.13;3.97;;;6.80;99.90;;;;;;5049034;28;20049;-72
2023/01/30 12:30:40;;;;;;;17.80;3.80;;;6.90;99.90;;;;;;5050555;28;20049;-72
2023/01/30 12:33:11;;;;;;;16.25;4.20;;;7.10;99.90;;;;;;5052113;28;20104;-72
2023/01/30 12:35:48;;;;;;;20.13;3.65;;;7.20;99.90;;;;;;5050450;28;20102;-72
2023/01/30 12:38:45;;;;;;;16.40;3.70;;;7.40;99.90;;;;;;5030522;28;20092;-72
2023/01/30 12:41:13;;;;;;;16.10;3.20;;;7.50;99.90;;;;;;5031314;28;20047;-72
2023/01/30 12:44:01;;;;;;;12.25;2.30;;;7.50;99.90;;;;;;5047329;28;20459;-72
2023/01/30 12:46:56;;;;;;;10.02;2.00;;;7.50;99.90;;;;;;5051682;28;20044;-72
2023/01/30 12:49:34;;;;;;;13.00;3.28;;;7.50;99.90;;;;;;5049362;28;20049;-73
2023/01/30 12:52:08;;;;;;;13.63;3.55;;;7.40;99.90;;;;;;5049682;28;20397;-73
2023/01/30 12:54:46;;;;;;;15.77;3.03;;;7.40;99.90;;;;;;5037942;28;20056;-74
2023/01/30 12:57:37;;;;;;;11.05;2.58;;;7.40;99.90;;;;;;5044426;28;20067;-77
2023/01/30 13:00:19;;;;;;;13.32;2.78;;;7.40;99.90;;;;;;5035944;28;20051;-75
2023/01/30 13:03:00;;;;;;;16.20;3.38;;;7.40;99.90;;;;;;5041360;28;20041;-75
2023/01/30 13:05:53;;;;;;;14.48;2.72;;;7.40;99.90;;;;;;5045389;28;20101;-77
2023/01/30 13:08:40;;;;;;;19.23;3.20;;;7.40;99.90;;;;;;5039493;28;20053;-75